sensor_id;sensor_type;location;lat;lon;timestamp;pressure;altitude;pressure_sealevel;temperature;humidity
71642;BME280;60657;50.122;14.468;2022-08-04T00:02:15;98237.78548840439;;;26.444647898069732;48.95536736095216
71642;BME280;60657;50.122;14.468;2022-08-04T00:05:28;98244.47656538196;;;26.335164415960932;49.504692149233236
71642;BME280;60657;50.122;14.468;2022-08-04T00:08:38;98253.17619680754;;;26.18028534370947;50.080720225833524
71642;BME280;60657;50.122;14.468;2022-08-04T00:11:47;98255.22834685445;;;25.811779964904247;52.350499732967116
71642;BME280;60657;50.122;14.468;2022-08-04T00:14:51;98249.04472660106;;;25.51804379339285;53.71427481498436
71642;BME280;60657;50.122;14.468;2022-08-04T00:17:59;98256.40545815403;;;25.33112077515831;55.04371709773404
71642;BME280;60657;50.122;14.468;2022-08-04T00:21:04;98263.21074357948;;;25.15220874341955;55.88677805752651
71642;BME280;60657;50.122;14.468;2022-08-04T00:24:09;98262.65564682048;;;25.114824139772637;55.96879530022125
71642;BME280;60657;50.122;14.468;2022-08-04T00:27:13;98259.90294249589;;;25.0854505226215;56.09658960860609
71642;BME280;60657;50.122;14.468;2022-08-04T00:30:16;98262.53766915551;;;25.050736247806512;55.95544365606165
71642;BME280;60657;50.122;14.468;2022-08-04T00:33:18;98259.81537448188;;;25.09346150911726;55.711299305714505
71642;BME280;60657;50.122;14.468;2022-08-04T00:36:21;98257.91235907377;;;25.130846112764175;55.75135423819333
71642;BME280;60657;50.122;14.468;2022-08-04T00:39:25;98263.56360288785;;;25.17624170290685;54.50202182040131
71642;BME280;60657;50.122;14.468;2022-08-04T00:42:32;98263.47552491889;;;25.200274662394136;54.34752422369726
71642;BME280;60657;50.122;14.468;2022-08-04T00:45:46;98263.73948514633;;;25.1335164415961;54.15487907225147
71642;BME280;60657;50.122;14.468;2022-08-04T00:49:10;98267.48674017323;;;25.2323186083772;53.853513389791715
71642;BME280;60657;50.122;14.468;2022-08-04T00:52:32;98269.2147610429;;;25.144197756923788;52.26085297932403
71642;BME280;60657;50.122;14.468;2022-08-04T00:55:52;98264.11895498516;;;25.1335164415961;52.34287022201877
71642;BME280;60657;50.122;14.468;2022-08-04T00:59:08;98267.13293500135;;;25.293736171511412;52.23796444647898
71642;BME280;60657;50.122;14.468;2022-08-04T01:02:28;98275.24272389946;;;25.363164721141374;52.36575875486381
71642;BME280;60657;50.122;14.468;2022-08-04T01:05:41;98269.94640916484;;;25.259021896696424;52.80636301213092
71642;BME280;60657;50.122;14.468;2022-08-04T01:09:03;98274.60032481686;;;25.315098802166787;52.88838025482566
71642;BME280;60657;50.122;14.468;2022-08-04T01:12:40;98272.14069556365;;;25.267032883192186;52.95513847562371
71642;BME280;60657;50.122;14.468;2022-08-04T01:15:59;98276.77041880455;;;25.0854505226215;53.815365835049974
71642;BME280;60657;50.122;14.468;2022-08-04T01:19:06;98277.94214091137;;;25.144197756923788;53.76195925841154
71642;BME280;60657;50.122;14.468;2022-08-04T01:22:39;98278.55422298613;;;25.069428549629976;54.234988937209124
71642;BME280;60657;50.122;14.468;2022-08-04T01:26:12;98272.08072131568;;;25.06675822079805;54.62600137331197
71642;BME280;60657;50.122;14.468;2022-08-04T01:29:33;98277.60796000983;;;24.943923094529637;55.20202944991226
71642;BME280;60657;50.122;14.468;2022-08-04T01:32:43;98276.39826342241;;;24.834439612420837;55.793316548409244
71642;BME280;60657;50.122;14.468;2022-08-04T01:35:53;98281.83363455266;;;24.815747310597388;55.682688639658195
71642;BME280;60657;50.122;14.468;2022-08-04T01:38:57;98275.61203045986;;;24.72495613031205;55.92111085679408
71642;BME280;60657;50.122;14.468;2022-08-04T01:42:01;98274.62164725791;;;24.703593499656677;55.53009842069123
71642;BME280;60657;50.122;14.468;2022-08-04T01:45:07;98277.59184278682;;;24.679560540169376;55.768520637827116
71642;BME280;60657;50.122;14.468;2022-08-04T01:48:11;98286.13369202746;;;24.64484626535439;55.90012970168612
71642;BME280;60657;50.122;14.468;2022-08-04T01:51:16;98282.68319262938;;;24.674219882505525;55.91157396810864
71642;BME280;60657;50.122;14.468;2022-08-04T01:54:23;98286.70059397012;;;24.671549553673614;55.76279850461585
71642;BME280;60657;50.122;14.468;2022-08-04T01:57:27;98281.86280206339;;;24.658197909514;55.73800259403372
71642;BME280;60657;50.122;14.468;2022-08-04T02:00:29;98274.64803676476;;;24.551384756237127;55.78187228198672
71642;BME280;60657;50.122;14.468;2022-08-04T02:03:37;98276.87620774914;;;24.444571602960252;55.78187228198672
71642;BME280;60657;50.122;14.468;2022-08-04T02:06:44;98276.3893610639;;;24.428549629968714;55.79903868162051
71642;BME280;60657;50.122;14.468;2022-08-04T02:09:57;98282.05832400371;;;24.377813382162202;55.65980010681315
71642;BME280;60657;50.122;14.468;2022-08-04T02:13:09;98290.26466322818;;;24.41252765697719;56.075608453498134
71642;BME280;60657;50.122;14.468;2022-08-04T02:16:23;98290.91996271572;;;24.40718699931334;55.4023041123064
71642;BME280;60657;50.122;14.468;2022-08-04T02:19:34;98283.11991532009;;;24.428549629968714;55.50720988784619
71642;BME280;60657;50.122;14.468;2022-08-04T02:22:46;98287.14697064762;;;24.27901121538109;56.298771648737315
71642;BME280;60657;50.122;14.468;2022-08-04T02:26:00;98292.06979457452;;;24.225604638742652;56.336919203479056
71642;BME280;60657;50.122;14.468;2022-08-04T02:29:07;98284.34883944206;;;24.153505760280765;55.91348134584573
71642;BME280;60657;50.122;14.468;2022-08-04T02:32:18;98281.64357194341;;;24.078736552986953;55.917296101319906
71642;BME280;60657;50.122;14.468;2022-08-04T02:35:26;98277.78244089478;;;24.092088197146566;55.82764934767681
71642;BME280;60657;50.122;14.468;2022-08-04T02:38:32;98275.81719833531;;;24.126802471961554;55.90775921263447
71642;BME280;60657;50.122;14.468;2022-08-04T02:41:48;98283.35089565477;;;24.009308003356992;56.62874799725338
71642;BME280;60657;50.122;14.468;2022-08-04T02:44:50;98288.06229777486;;;23.79568169680323;57.13229571984436
71642;BME280;60657;50.122;14.468;2022-08-04T02:47:52;98289.07523439013;;;23.56870374608988;58.038300144960715
71642;BME280;60657;50.122;14.468;2022-08-04T02:50:57;98278.63065524623;;;23.42717631799802;58.28244449530786
71642;BME280;60657;50.122;14.468;2022-08-04T02:54:02;98284.9923503949;;;23.31769283588922;58.53612573434043
71642;BME280;60657;50.122;14.468;2022-08-04T02:57:07;98283.65397439347;;;23.304341191729605;58.72495613031205
71642;BME280;60657;50.122;14.468;2022-08-04T03:00:12;98286.34543522896;;;23.216220340276195;58.961470969710845
71642;BME280;60657;50.122;14.468;2022-08-04T03:03:18;98290.0831672532;;;23.013275349050133;59.76447699702449
71642;BME280;60657;50.122;14.468;2022-08-04T03:06:31;98286.19710294875;;;22.954528114747845;59.89036392767224
71642;BME280;60657;50.122;14.468;2022-08-04T03:10:30;98281.26750449285;;;22.901121538109408;60.15167467765316
71642;BME280;60657;50.122;14.468;2022-08-04T03:14:00;98280.00057717955;;;23.144121461814294;59.234225986114296
71642;BME280;60657;50.122;14.468;2022-08-04T03:18:32;98281.26570632201;;;23.205539024948507;59.25520714122224
71642;BME280;60657;50.122;14.468;2022-08-04T03:22:28;98280.42680841064;;;23.30701152056153;58.251926451514464
71642;BME280;60657;50.122;14.468;2022-08-04T03:26:09;98284.14789710019;;;23.40848401617457;57.93911650263218
71642;BME280;60657;50.122;14.468;2022-08-04T03:29:41;98287.43277556529;;;23.48325322346838;57.97726405737392
71642;BME280;60657;50.122;14.468;2022-08-04T03:33:08;98289.6640408563;;;23.472571908140694;58.08789196612497
71642;BME280;60657;50.122;14.468;2022-08-04T03:36:37;98289.58638381376;;;23.53933012893873;58.29388876173037
71642;BME280;60657;50.122;14.468;2022-08-04T03:40:39;98290.56282379197;;;23.443198290989542;58.59143968871595
71642;BME280;60657;50.122;14.468;2022-08-04T03:44:05;98290.56282379197;;;23.445868619821468;58.9538414587625
71642;BME280;60657;50.122;14.468;2022-08-04T03:47:38;98288.25400334517;;;23.41649500267033;59.10452429999238
71642;BME280;60657;50.122;14.468;2022-08-04T03:51:07;98289.76753481412;;;23.379110399023418;59.276188296330204
71642;BME280;60657;50.122;14.468;2022-08-04T03:54:27;98286.48225034722;;;23.309681849393456;59.64240482185092
71642;BME280;60657;50.122;14.468;2022-08-04T03:57:51;98294.10351014721;;;23.344396124208444;60.05058365758755
71642;BME280;60657;50.122;14.468;2022-08-04T04:01:23;98291.7917464742;;;23.304341191729605;61.1187151903563
71642;BME280;60657;50.122;14.468;2022-08-04T04:04:47;98282.75668859994;;;23.28030823224232;61.294193942168306
71642;BME280;60657;50.122;14.468;2022-08-04T04:08:10;98287.39341284879;;;23.17082475013352;61.780575265125506
71642;BME280;60657;50.122;14.468;2022-08-04T04:11:36;98291.05522179627;;;23.10406652933547;62.05333028152896
71642;BME280;60657;50.122;14.468;2022-08-04T04:14:56;98288.96431872898;;;23.007934691386282;62.5626001373312
71642;BME280;60657;50.122;14.468;2022-08-04T04:18:15;98293.07210635746;;;22.986572060730907;62.88685435263599
71642;BME280;60657;50.122;14.468;2022-08-04T04:21:37;98284.70754843196;;;22.949187457083994;62.91355764095522
71642;BME280;60657;50.122;14.468;2022-08-04T04:25:02;98287.01871420506;;;22.834363317311357;63.48195620660715
71642;BME280;60657;50.122;14.468;2022-08-04T04:28:25;98297.483654648;;;22.553978789959558;64.47379262989243
71642;BME280;60657;50.122;14.468;2022-08-04T04:31:48;98295.69730421662;;;22.521934843976496;64.96017395284962
71642;BME280;60657;50.122;14.468;2022-08-04T04:35:07;98294.83523037318;;;22.682154573891808;64.43945983062486
71642;BME280;60657;50.122;14.468;2022-08-04T04:38:39;98293.9601679434;;;22.84237430380712;63.998855573357744
71642;BME280;60657;50.122;14.468;2022-08-04T04:42:00;98303.94787002851;;;22.724879835202557;65.07270923933775
71642;BME280;60657;50.122;14.468;2022-08-04T04:45:19;98301.87759076674;;;22.460517280842296;66.37544823376821
71642;BME280;60657;50.122;14.468;2022-08-04T04:48:29;98306.83188387436;;;22.36972610055696;66.95719844357977
71642;BME280;60657;50.122;14.468;2022-08-04T04:51:42;98313.00478316718;;;22.32967116807812;67.14984359502556
71642;BME280;60657;50.122;14.468;2022-08-04T04:54:52;98317.72977883046;;;22.380407415884648;66.9076066224155
71642;BME280;60657;50.122;14.468;2022-08-04T04:58:01;98317.72977883046;;;22.401770046540022;66.38689250019074
71642;BME280;60657;50.122;14.468;2022-08-04T05:01:15;98319.3045405793;;;22.48187991149767;65.57625696192873
71642;BME280;60657;50.122;14.468;2022-08-04T05:04:43;98316.48797399746;;;22.59136339360647;64.43945983062486
71642;BME280;60657;50.122;14.468;2022-08-04T05:10:29;98319.56559160458;;;22.636758983749147;63.2111085679408
71642;BME280;60657;50.122;14.468;2022-08-04T05:13:49;98321.06867844099;;;22.692835889219495;61.98847943846799
71642;BME280;60657;50.122;14.468;2022-08-04T05:16:56;98319.53502811425;;;22.807660028992146;61.648966201266504
71642;BME280;60657;50.122;14.468;2022-08-04T05:20:07;98315.67153821597;;;22.88509956511787;60.67238879987792
71642;BME280;60657;50.122;14.468;2022-08-04T05:23:15;98319.49123096677;;;22.997253376058595;60.43015182726788
71642;BME280;60657;50.122;14.468;2022-08-04T05:26:22;98315.83920167525;;;23.002594033722445;59.762569619287405
71642;BME280;60657;50.122;14.468;2022-08-04T05:29:33;98318.30476811492;;;23.039978637369344;60.17647058823529
71642;BME280;60657;50.122;14.468;2022-08-04T05:32:42;98314.42971585496;;;23.144121461814294;59.796902418554964
71642;BME280;60657;50.122;14.468;2022-08-04T05:35:51;98317.2720221777;;;23.23224231326772;58.73449301899748
71642;BME280;60657;50.122;14.468;2022-08-04T05:39:01;98312.86538329172;;;23.290989547570007;58.99008163576714
71642;BME280;60657;50.122;14.468;2022-08-04T05:42:04;98315.77714456701;;;23.35507743953613;58.765011062790876
71642;BME280;60657;50.122;14.468;2022-08-04T05:45:08;98316.5987617065;;;23.360418097199968;58.127946898603795
71642;BME280;60657;50.122;14.468;2022-08-04T05:48:10;98317.48513715221;;;23.52063782711528;58.39879453727016
71642;BME280;60657;50.122;14.468;2022-08-04T05:51:13;98319.28032321802;;;23.523308155947205;59.00152590218967
71642;BME280;60657;50.122;14.468;2022-08-04T05:54:16;98319.5407522032;;;23.822384985122454;57.99061570153353
71642;BME280;60657;50.122;14.468;2022-08-04T05:57:21;98318.25204129615;;;23.91050583657588;57.73121232928969
71642;BME280;60657;50.122;14.468;2022-08-04T06:00:25;98319.4532203393;;;24.142824444953078;57.075074387731746
71642;BME280;60657;50.122;14.468;2022-08-04T06:03:30;98318.16726493352;;;24.383154039826053;56.62684061951629
71642;BME280;60657;50.122;14.468;2022-08-04T06:06:35;98323.50711020094;;;24.447241931792178;55.64072632944228
71642;BME280;60657;50.122;14.468;2022-08-04T06:09:39;98319.3204588136;;;24.706263828488588;55.226825360494395
71642;BME280;60657;50.122;14.468;2022-08-04T06:12:43;98332.94282783619;;;24.799725337605864;54.1949340047303
71642;BME280;60657;50.122;14.468;2022-08-04T06:15:50;98325.62529932223;;;24.850461585412376;53.872587167162585
71642;BME280;60657;50.122;14.468;2022-08-04T06:18:58;98316.66100663338;;;25.002670328831925;54.479133287556266
71642;BME280;60657;50.122;14.468;2022-08-04T06:22:04;98318.92131075809;;;25.117494468604562;53.13061722743572
71642;BME280;60657;50.122;14.468;2022-08-04T06:25:13;98320.69380142666;;;25.272373540856037;52.501182574196996
71642;BME280;60657;50.122;14.468;2022-08-04T06:28:21;98320.58638979698;;;25.555428397039748;51.83360036621652
71642;BME280;60657;50.122;14.468;2022-08-04T06:31:25;98316.04312909578;;;25.63553826199741;52.33905546654459
71642;BME280;60657;50.122;14.468;2022-08-04T06:34:31;98317.70091939122;;;25.814450293736172;51.38536659800107
71642;BME280;60657;50.122;14.468;2022-08-04T06:37:36;98318.43129222801;;;25.859845883878847;50.857022964827955
71642;BME280;60657;50.122;14.468;2022-08-04T06:40:39;98307.14387191035;;;26.271076523994807;49.68398565651942
71642;BME280;60657;50.122;14.468;2022-08-04T06:43:42;98311.49261635712;;;26.580834668497744;48.45181963836118
71642;BME280;60657;50.122;14.468;2022-08-04T06:46:45;98314.27447024274;;;26.757076371404594;47.355077439536124
71642;BME280;60657;50.122;14.468;2022-08-04T06:49:49;98307.96963405231;;;26.757076371404594;49.37499046311132
71642;BME280;60657;50.122;14.468;2022-08-04T06:52:53;98309.71272036564;;;27.09086747539483;48.42130159456779
71642;BME280;60657;50.122;14.468;2022-08-04T06:55:56;98299.24422141333;;;27.34721904325933;47.87197680628672
71642;BME280;60657;50.122;14.468;2022-08-04T06:59:02;98302.4118191679;;;27.819867246509503;46.76379034103914
71642;BME280;60657;50.122;14.468;2022-08-04T07:02:06;98300.36954639337;;;27.742427710383765;44.91744869153887
71642;BME280;60657;50.122;14.468;2022-08-04T07:05:14;98310.26850025133;;;27.523460746166165;46.32318608377203
71642;BME280;60657;50.122;14.468;2022-08-04T07:08:18;98310.18352286075;;;27.646295872434578;46.11909666590372
71642;BME280;60657;50.122;14.468;2022-08-04T07:11:22;98298.42960119575;;;28.054856183718627;44.528343633173115
71642;BME280;60657;50.122;14.468;2022-08-04T07:14:26;98306.894660958;;;28.43671320668345;43.66239414053559
71642;BME280;60657;50.122;14.468;2022-08-04T07:17:28;98301.9380293181;;;28.722438391699086;43.50408178835737
71642;BME280;60657;50.122;14.468;2022-08-04T07:20:39;98300.87370090807;;;28.671702143892574;44.09346150911727
71642;BME280;60657;50.122;14.468;2022-08-04T07:23:42;98296.26413611531;;;28.930724040589;43.10734721904326
71642;BME280;60657;50.122;14.468;2022-08-04T07:26:48;98299.04309412019;;;28.850614175631335;44.20218204013123
71642;BME280;60657;50.122;14.468;2022-08-04T07:29:51;98289.77755095524;;;28.97344930189975;44.146868085755706
71642;BME280;60657;50.122;14.468;2022-08-04T07:32:53;98293.03251966609;;;29.203097581445036;43.994277866788735
71642;BME280;60657;50.122;14.468;2022-08-04T07:35:57;98290.9389499616;;;29.814602883955132;41.12176699473564
71642;BME280;60657;50.122;14.468;2022-08-04T07:38:59;98284.46634638538;;;30.09498741130693;41.251468680857556
71642;BME280;60657;50.122;14.468;2022-08-04T07:42:01;98283.65394735278;;;30.23384451056687;41.091248950942244
71642;BME280;60657;50.122;14.468;2022-08-04T07:45:09;98281.55146807061;;;30.28191042954147;40.32448310063325
71642;BME280;60657;50.122;14.468;2022-08-04T07:48:19;98278.27778431127;;;30.362020294499118;40.88525215533684
71642;BME280;60657;50.122;14.468;2022-08-04T07:51:21;98280.13598617207;;;30.548943312733655;40.37026016632334
71642;BME280;60657;50.122;14.468;2022-08-04T07:54:24;98278.8971218485;;;30.775921263447017;39.43183031967651
71642;BME280;60657;50.122;14.468;2022-08-04T07:57:27;98284.33530553954;;;31.074998092622266;39.513847562371254
71642;BME280;60657;50.122;14.468;2022-08-04T08:00:29;98271.89176849167;;;31.189822232394903;37.35088120851454
71642;BME280;60657;50.122;14.468;2022-08-04T08:03:32;98271.73583099822;;;31.582360570687413;37.69993133440146
71642;BME280;60657;50.122;14.468;2022-08-04T08:06:36;98273.16803216525;;;31.844052796215763;36.96368352788586
71642;BME280;60657;50.122;14.468;2022-08-04T08:09:39;98269.91746549487;;;31.59838254367895;37.20592050049592
71642;BME280;60657;50.122;14.468;2022-08-04T08:12:42;98269.79170900893;;;31.611734187838564;36.66041046768902
71642;BME280;60657;50.122;14.468;2022-08-04T08:15:46;98261.80449467496;;;31.72121766994735;35.00862134737164
71642;BME280;60657;50.122;14.468;2022-08-04T08:18:49;98271.22876583382;;;31.74525062943465;34.89990081635767
71642;BME280;60657;50.122;14.468;2022-08-04T08:21:51;98266.18599595463;;;31.929503318837263;35.575112535286486
71642;BME280;60657;50.122;14.468;2022-08-04T08:24:53;98264.51591549465;;;32.14579995422294;34.445944914930955
71642;BME280;60657;50.122;14.468;2022-08-04T08:27:56;98261.68285439922;;;32.12443732356756;35.21461814297704
71642;BME280;60657;50.122;14.468;2022-08-04T08:30:58;98254.60505886693;;;31.969558251316087;34.566109712367435
71642;BME280;60657;50.122;14.468;2022-08-04T08:34:00;98265.84669969368;;;32.028305485618375;34.05302510109102
71642;BME280;60657;50.122;14.468;2022-08-04T08:37:04;98268.80662735719;;;31.85473411154345;34.817883573662925
71642;BME280;60657;50.122;14.468;2022-08-04T08:40:18;98258.33014015127;;;32.24727244983596;33.08979934386206
71642;BME280;60657;50.122;14.468;2022-08-04T08:43:35;98263.09036052639;;;32.18852521553369;34.56992446784161
71642;BME280;60657;50.122;14.468;2022-08-04T08:46:59;98253.01411617831;;;32.01228351262684;34.640497444113834
71642;BME280;60657;50.122;14.468;2022-08-04T08:50:17;98249.11765984766;;;32.90951400015258;33.62958724345769
71642;BME280;60657;50.122;14.468;2022-08-04T08:53:44;98256.87648406233;;;33.1658655680171;33.120317387655454
71642;BME280;60657;50.122;14.468;2022-08-04T08:57:05;98248.8606083182;;;32.8374151216907;32.26771953917754
71642;BME280;60657;50.122;14.468;2022-08-04T09:00:33;98240.0466980032;;;33.270008392462046;31.67643244068055
71642;BME280;60657;50.122;14.468;2022-08-04T09:03:52;98243.83691116127;;;33.36346990157931;31.84428168154421
71642;BME280;60657;50.122;14.468;2022-08-04T09:07:37;98246.95601862499;;;33.067063401235984;31.726024261844813
71642;BME280;60657;50.122;14.468;2022-08-04T09:10:55;98243.17035206841;;;33.03501945525292;32.30395971618219
71642;BME280;60657;50.122;14.468;2022-08-04T09:14:08;98245.19040141588;;;33.38750286106661;33.17944609750515
71642;BME280;60657;50.122;14.468;2022-08-04T09:17:20;98228.39762842096;;;33.85481040665293;31.682154573891815
71642;BME280;60657;50.122;14.468;2022-08-04T09:20:30;98237.42348693724;;;34.001678492408644;31.560082398718244
71642;BME280;60657;50.122;14.468;2022-08-04T09:23:53;98230.93582063125;;;34.250019073777366;31.571526665140766
71642;BME280;60657;50.122;14.468;2022-08-04T09:27:08;98226.38402295108;;;34.04440375371939;32.09224078736553
71642;BME280;60657;50.122;14.468;2022-08-04T09:30:20;98223.63828189853;;;34.75204089417868;30.917296101319906
71642;BME280;60657;50.122;14.468;2022-08-04T09:33:31;98216.63240390124;;;34.725337605859465;30.800946059357592
71642;BME280;60657;50.122;14.468;2022-08-04T09:36:45;98220.67757197033;;;34.53307392996109;30.884870679789422
71642;BME280;60657;50.122;14.468;2022-08-04T09:39:57;98213.1285092785;;;34.40489814602884;30.568245975432973
71642;BME280;60657;50.122;14.468;2022-08-04T09:43:08;98218.2385628544;;;34.45029373617152;31.010757610437174
71642;BME280;60657;50.122;14.468;2022-08-04T09:46:28;98210.79590607663;;;34.682612344548716;30.272602426184484
71642;BME280;60657;50.122;14.468;2022-08-04T09:49:37;98205.03837839382;;;34.74135957885099;30.665522240024416
71642;BME280;60657;50.122;14.468;2022-08-04T09:52:48;98206.2969196707;;;34.91760128175784;30.09140154116121
71642;BME280;60657;50.122;14.468;2022-08-04T09:56:07;98209.32257832862;;;35.06179903868163;30.469062333104446
71642;BME280;60657;50.122;14.468;2022-08-04T09:59:18;98203.59400132943;;;35.39291981383994;30.045624475471122
71642;BME280;60657;50.122;14.468;2022-08-04T10:02:27;98197.20981626175;;;35.47035934996566;29.431448844129093
71642;BME280;60657;50.122;14.468;2022-08-04T10:05:41;98199.24299137272;;;35.49706263828489;28.246967269398034
71642;BME280;60657;50.122;14.468;2022-08-04T10:08:57;98196.1354649939;;;35.90562294956894;29.135805294880598
71642;BME280;60657;50.122;14.468;2022-08-04T10:12:14;98178.43200498755;;;36.02044708934157;28.62462806134127
71642;BME280;60657;50.122;14.468;2022-08-04T10:15:33;98186.52793407874;;;36.522468909742884;28.504463263904782
71642;BME280;60657;50.122;14.468;2022-08-04T10:18:47;98184.76628078084;;;36.75211718928817;27.55077439536126
71642;BME280;60657;50.122;14.468;2022-08-04T10:22:04;98179.22605242983;;;36.51979858091096;28.163042648966204
71642;BME280;60657;50.122;14.468;2022-08-04T10:25:16;98173.54696371063;;;36.44769970244907;26.982375829709312
71642;BME280;60657;50.122;14.468;2022-08-04T10:28:32;98177.17758723198;;;36.72274357213702;28.721904325932705
71642;BME280;60657;50.122;14.468;2022-08-04T10:31:42;98181.29840403322;;;36.356908522163735;27.070115205615323
71642;BME280;60657;50.122;14.468;2022-08-04T10:34:56;98177.86937156194;;;36.18333714808881;28.147783627069508
71642;BME280;60657;50.122;14.468;2022-08-04T10:38:09;98174.41189034272;;;36.58388647287708;27.46494239719234
71642;BME280;60657;50.122;14.468;2022-08-04T10:41:21;98169.6883210057;;;36.359578850995646;27.575570305943387
71642;BME280;60657;50.122;14.468;2022-08-04T10:44:32;98166.12608619884;;;36.412985427634084;27.869306477454792
71642;BME280;60657;50.122;14.468;2022-08-04T10:47:51;98171.46938463152;;;36.43167772945755;27.072022583352407
71642;BME280;60657;50.122;14.468;2022-08-04T10:51:05;98166.63365382531;;;36.33821622034027;27.529793240253298
71642;BME280;60657;50.122;14.468;2022-08-04T10:54:18;98157.56478212036;;;36.68535896849012;28.063859006637678
71642;BME280;60657;50.122;14.468;2022-08-04T10:57:31;98160.18171420855;;;37.005798428320745;28.361409933623257
71642;BME280;60657;50.122;14.468;2022-08-04T11:00:40;98154.98347238947;;;37.31555657282368;29.290302891584652
71642;BME280;60657;50.122;14.468;2022-08-04T11:03:47;98150.45994408621;;;38.02052338445105;27.67284657053483
71642;BME280;60657;50.122;14.468;2022-08-04T11:06:57;98145.26467150342;;;37.86297398336767;26.288090333409627
71642;BME280;60657;50.122;14.468;2022-08-04T11:10:01;98148.9124804793;;;37.574578469520105;27.154039826047153
71642;BME280;60657;50.122;14.468;2022-08-04T11:13:04;98152.37962103162;;;37.139314869916845;27.67284657053483
71642;BME280;60657;50.122;14.468;2022-08-04T11:16:13;98149.94831311326;;;37.21141374837873;27.194094758525978
71642;BME280;60657;50.122;14.468;2022-08-04T11:19:25;98145.19352589754;;;37.54787518120088;26.86793316548409
71642;BME280;60657;50.122;14.468;2022-08-04T11:22:35;98156.93902024023;;;37.09391927977417;26.482642862592506
71642;BME280;60657;50.122;14.468;2022-08-04T11:25:48;98153.85686503217;;;37.12329289692531;26.61043717097734
71642;BME280;60657;50.122;14.468;2022-08-04T11:29:00;98149.60792276444;;;37.42504005493248;26.658121614404514
71642;BME280;60657;50.122;14.468;2022-08-04T11:32:13;98154.33643273106;;;37.14999618524453;26.536049439230943
71642;BME280;60657;50.122;14.468;2022-08-04T11:35:22;98157.06596574667;;;37.41435873960479;26.949950408178836
71642;BME280;60657;50.122;14.468;2022-08-04T11:38:32;98149.34229102987;;;37.812237735561155;26.221332112611584